sensor_id;sensor_type;location;lat;lon;timestamp;temperature;humidity
19862;DHT22;10093;48.148;8.542;2022-08-02T00:00:10;13.90;99.90
19862;DHT22;10093;48.148;8.542;2022-08-02T00:02:37;14.00;99.90
19862;DHT22;10093;48.148;8.542;2022-08-02T00:05:04;14.00;99.90
19862;DHT22;10093;48.148;8.542;2022-08-02T00:07:29;14.20;99.90
19862;DHT22;10093;48.148;8.542;2022-08-02T00:09:55;14.30;99.90
19862;DHT22;10093;48.148;8.542;2022-08-02T00:12:21;14.40;99.90
19862;DHT22;10093;48.148;8.542;2022-08-02T00:14:47;14.30;99.90
19862;DHT22;10093;48.148;8.542;2022-08-02T00:17:12;14.10;99.90
19862;DHT22;10093;48.148;8.542;2022-08-02T00:19:38;14.10;99.90
19862;DHT22;10093;48.148;8.542;2022-08-02T00:22:03;14.10;99.90
19862;DHT22;10093;48.148;8.542;2022-08-02T00:24:30;14.10;99.90
19862;DHT22;10093;48.148;8.542;2022-08-02T00:26:56;14.00;99.90
19862;DHT22;10093;48.148;8.542;2022-08-02T00:29:21;14.10;99.90
19862;DHT22;10093;48.148;8.542;2022-08-02T00:31:47;14.10;99.90
19862;DHT22;10093;48.148;8.542;2022-08-02T00:34:13;14.20;99.90
19862;DHT22;10093;48.148;8.542;2022-08-02T00:36:39;14.10;99.90
19862;DHT22;10093;48.148;8.542;2022-08-02T00:39:05;14.00;99.90
19862;DHT22;10093;48.148;8.542;2022-08-02T00:41:30;13.90;99.90
19862;DHT22;10093;48.148;8.542;2022-08-02T00:43:56;13.90;99.90
19862;DHT22;10093;48.148;8.542;2022-08-02T00:46:22;13.80;99.90
19862;DHT22;10093;48.148;8.542;2022-08-02T00:48:48;13.80;99.90
19862;DHT22;10093;48.148;8.542;2022-08-02T00:51:14;13.70;99.90
19862;DHT22;10093;48.148;8.542;2022-08-02T00:53:40;13.70;99.90
19862;DHT22;10093;48.148;8.542;2022-08-02T00:56:06;13.50;99.90
19862;DHT22;10093;48.148;8.542;2022-08-02T00:58:32;13.40;99.90
19862;DHT22;10093;48.148;8.542;2022-08-02T01:00:58;13.30;99.90
19862;DHT22;10093;48.148;8.542;2022-08-02T01:03:25;13.20;99.90
19862;DHT22;10093;48.148;8.542;2022-08-02T01:05:51;13.10;99.90
19862;DHT22;10093;48.148;8.542;2022-08-02T01:08:17;13.00;99.90
19862;DHT22;10093;48.148;8.542;2022-08-02T01:10:43;13.00;99.90
19862;DHT22;10093;48.148;8.542;2022-08-02T01:13:09;13.00;99.90
19862;DHT22;10093;48.148;8.542;2022-08-02T01:15:37;12.90;99.90
19862;DHT22;10093;48.148;8.542;2022-08-02T01:18:09;12.90;99.90
19862;DHT22;10093;48.148;8.542;2022-08-02T01:23:40;12.80;99.90
19862;DHT22;10093;48.148;8.542;2022-08-02T01:32:07;12.70;99.90
19862;DHT22;10093;48.148;8.542;2022-08-02T01:37:21;12.80;99.90
19862;DHT22;10093;48.148;8.542;2022-08-02T01:39:52;12.80;99.90
19862;DHT22;10093;48.148;8.542;2022-08-02T01:42:19;12.70;99.90
19862;DHT22;10093;48.148;8.542;2022-08-02T01:44:46;12.70;99.90
19862;DHT22;10093;48.148;8.542;2022-08-02T01:47:18;12.60;99.90
19862;DHT22;10093;48.148;8.542;2022-08-02T01:49:49;12.60;99.90
19862;DHT22;10093;48.148;8.542;2022-08-02T01:52:16;12.50;99.90
19862;DHT22;10093;48.148;8.542;2022-08-02T01:55:13;12.80;99.90
19862;DHT22;10093;48.148;8.542;2022-08-02T01:57:52;12.80;99.90
19862;DHT22;10093;48.148;8.542;2022-08-02T02:00:20;12.70;99.90
19862;DHT22;10093;48.148;8.542;2022-08-02T02:02:49;12.60;99.90
19862;DHT22;10093;48.148;8.542;2022-08-02T02:05:19;12.60;99.90
19862;DHT22;10093;48.148;8.542;2022-08-02T02:07:48;12.50;99.90
19862;DHT22;10093;48.148;8.542;2022-08-02T02:10:16;12.60;99.90
19862;DHT22;10093;48.148;8.542;2022-08-02T02:12:46;12.60;99.90
19862;DHT22;10093;48.148;8.542;2022-08-02T02:15:13;12.60;99.90
19862;DHT22;10093;48.148;8.542;2022-08-02T02:17:43;12.80;99.90
19862;DHT22;10093;48.148;8.542;2022-08-02T02:20:14;12.70;99.90
19862;DHT22;10093;48.148;8.542;2022-08-02T02:22:41;12.80;99.90
19862;DHT22;10093;48.148;8.542;2022-08-02T02:25:09;12.80;99.90
19862;DHT22;10093;48.148;8.542;2022-08-02T02:27:36;12.70;99.90
19862;DHT22;10093;48.148;8.542;2022-08-02T02:30:04;12.60;99.90
19862;DHT22;10093;48.148;8.542;2022-08-02T02:32:31;12.60;99.90
19862;DHT22;10093;48.148;8.542;2022-08-02T02:34:58;12.60;99.90
19862;DHT22;10093;48.148;8.542;2022-08-02T02:37:27;12.70;99.90
19862;DHT22;10093;48.148;8.542;2022-08-02T02:39:54;12.70;99.90
19862;DHT22;10093;48.148;8.542;2022-08-02T02:42:25;12.70;99.90
19862;DHT22;10093;48.148;8.542;2022-08-02T02:44:52;12.60;99.90
19862;DHT22;10093;48.148;8.542;2022-08-02T02:47:19;12.70;99.90
19862;DHT22;10093;48.148;8.542;2022-08-02T02:49:47;12.90;99.90
19862;DHT22;10093;48.148;8.542;2022-08-02T02:52:15;12.90;99.90
19862;DHT22;10093;48.148;8.542;2022-08-02T02:54:43;12.80;99.90
19862;DHT22;10093;48.148;8.542;2022-08-02T02:57:09;12.60;99.90
19862;DHT22;10093;48.148;8.542;2022-08-02T02:59:37;12.50;99.90
19862;DHT22;10093;48.148;8.542;2022-08-02T03:02:04;12.50;99.90
19862;DHT22;10093;48.148;8.542;2022-08-02T03:04:31;12.50;99.90
19862;DHT22;10093;48.148;8.542;2022-08-02T03:06:58;12.40;99.90
19862;DHT22;10093;48.148;8.542;2022-08-02T03:09:24;12.30;99.90
19862;DHT22;10093;48.148;8.542;2022-08-02T03:11:52;12.30;99.90
19862;DHT22;10093;48.148;8.542;2022-08-02T03:14:17;12.20;99.90
19862;DHT22;10093;48.148;8.542;2022-08-02T03:16:51;12.20;99.90
19862;DHT22;10093;48.148;8.542;2022-08-02T03:19:18;12.20;99.90
19862;DHT22;10093;48.148;8.542;2022-08-02T03:21:45;12.10;99.90
19862;DHT22;10093;48.148;8.542;2022-08-02T03:24:12;12.10;99.90
19862;DHT22;10093;48.148;8.542;2022-08-02T03:26:38;12.10;99.90
19862;DHT22;10093;48.148;8.542;2022-08-02T03:29:04;12.10;99.90
19862;DHT22;10093;48.148;8.542;2022-08-02T03:31:31;12.10;99.90
19862;DHT22;10093;48.148;8.542;2022-08-02T03:33:58;12.00;99.90
19862;DHT22;10093;48.148;8.542;2022-08-02T03:36:27;11.90;99.90
19862;DHT22;10093;48.148;8.542;2022-08-02T03:38:54;11.80;99.90
19862;DHT22;10093;48.148;8.542;2022-08-02T03:41:21;11.70;99.90
19862;DHT22;10093;48.148;8.542;2022-08-02T03:43:48;11.70;99.90
19862;DHT22;10093;48.148;8.542;2022-08-02T03:46:17;11.60;99.90
19862;DHT22;10093;48.148;8.542;2022-08-02T03:48:43;11.60;99.90
19862;DHT22;10093;48.148;8.542;2022-08-02T03:51:10;11.50;99.90
19862;DHT22;10093;48.148;8.542;2022-08-02T03:53:37;11.50;99.90
19862;DHT22;10093;48.148;8.542;2022-08-02T03:56:04;11.60;99.90
19862;DHT22;10093;48.148;8.542;2022-08-02T03:58:30;11.60;99.90
19862;DHT22;10093;48.148;8.542;2022-08-02T04:00:56;11.60;99.90
19862;DHT22;10093;48.148;8.542;2022-08-02T04:03:22;11.60;99.90
19862;DHT22;10093;48.148;8.542;2022-08-02T04:05:48;11.80;99.90
19862;DHT22;10093;48.148;8.542;2022-08-02T04:08:14;11.80;99.90
19862;DHT22;10093;48.148;8.542;2022-08-02T04:10:40;11.90;99.90
19862;DHT22;10093;48.148;8.542;2022-08-02T04:13:27;12.00;99.90
19862;DHT22;10093;48.148;8.542;2022-08-02T04:15:57;12.10;99.90
19862;DHT22;10093;48.148;8.542;2022-08-02T04:18:29;12.10;99.90
19862;DHT22;10093;48.148;8.542;2022-08-02T04:20:55;12.20;99.90
19862;DHT22;10093;48.148;8.542;2022-08-02T04:23:23;12.30;99.90
19862;DHT22;10093;48.148;8.542;2022-08-02T04:25:50;12.50;99.90
19862;DHT22;10093;48.148;8.542;2022-08-02T04:28:17;12.50;99.90
19862;DHT22;10093;48.148;8.542;2022-08-02T04:30:43;12.50;99.90
19862;DHT22;10093;48.148;8.542;2022-08-02T04:33:09;12.40;99.90
19862;DHT22;10093;48.148;8.542;2022-08-02T04:35:35;12.40;99.90
19862;DHT22;10093;48.148;8.542;2022-08-02T04:38:01;12.40;99.90
19862;DHT22;10093;48.148;8.542;2022-08-02T04:40:27;12.70;99.90
19862;DHT22;10093;48.148;8.542;2022-08-02T04:42:52;12.90;99.90
19862;DHT22;10093;48.148;8.542;2022-08-02T04:45:19;13.10;99.90
19862;DHT22;10093;48.148;8.542;2022-08-02T04:47:45;13.10;99.90
19862;DHT22;10093;48.148;8.542;2022-08-02T04:50:11;13.10;99.90
19862;DHT22;10093;48.148;8.542;2022-08-02T04:52:37;13.00;99.90
19862;DHT22;10093;48.148;8.542;2022-08-02T04:55:02;13.10;99.90
19862;DHT22;10093;48.148;8.542;2022-08-02T04:57:28;13.20;99.90
19862;DHT22;10093;48.148;8.542;2022-08-02T05:00:13;13.30;99.90
19862;DHT22;10093;48.148;8.542;2022-08-02T05:02:38;13.50;99.90
19862;DHT22;10093;48.148;8.542;2022-08-02T05:05:04;13.70;99.90
19862;DHT22;10093;48.148;8.542;2022-08-02T05:07:30;14.10;99.90
19862;DHT22;10093;48.148;8.542;2022-08-02T05:09:56;14.20;99.90
19862;DHT22;10093;48.148;8.542;2022-08-02T05:12:22;14.30;99.90
19862;DHT22;10093;48.148;8.542;2022-08-02T05:14:48;14.40;99.90
19862;DHT22;10093;48.148;8.542;2022-08-02T05:17:14;15.00;99.90
19862;DHT22;10093;48.148;8.542;2022-08-02T05:19:40;15.70;99.90
19862;DHT22;10093;48.148;8.542;2022-08-02T05:22:06;16.70;99.90
19862;DHT22;10093;48.148;8.542;2022-08-02T05:24:32;17.30;99.90
19862;DHT22;10093;48.148;8.542;2022-08-02T05:26:57;17.60;99.90
19862;DHT22;10093;48.148;8.542;2022-08-02T05:29:23;18.10;99.90
19862;DHT22;10093;48.148;8.542;2022-08-02T05:31:49;19.00;99.90
19862;DHT22;10093;48.148;8.542;2022-08-02T05:34:14;19.90;99.90
19862;DHT22;10093;48.148;8.542;2022-08-02T05:36:40;20.20;99.90
19862;DHT22;10093;48.148;8.542;2022-08-02T05:39:06;19.80;99.90
19862;DHT22;10093;48.148;8.542;2022-08-02T05:41:32;19.40;99.90
19862;DHT22;10093;48.148;8.542;2022-08-02T05:43:57;19.10;99.90
19862;DHT22;10093;48.148;8.542;2022-08-02T05:46:23;19.60;99.90
19862;DHT22;10093;48.148;8.542;2022-08-02T05:48:49;20.40;99.90
19862;DHT22;10093;48.148;8.542;2022-08-02T05:51:39;20.90;99.90
19862;DHT22;10093;48.148;8.542;2022-08-02T05:54:16;21.40;99.90
19862;DHT22;10093;48.148;8.542;2022-08-02T05:59:58;21.50;99.90
19862;DHT22;10093;48.148;8.542;2022-08-02T06:05:14;19.90;99.90
19862;DHT22;10093;48.148;8.542;2022-08-02T06:07:41;19.80;99.90
19862;DHT22;10093;48.148;8.542;2022-08-02T06:10:09;19.60;99.90
19862;DHT22;10093;48.148;8.542;2022-08-02T06:12:47;19.50;99.90
19862;DHT22;10093;48.148;8.542;2022-08-02T06:15:14;19.50;99.90
19862;DHT22;10093;48.148;8.542;2022-08-02T06:17:41;19.80;99.90
19862;DHT22;10093;48.148;8.542;2022-08-02T06:20:07;20.10;99.90
19862;DHT22;10093;48.148;8.542;2022-08-02T06:22:35;20.10;99.90
19862;DHT22;10093;48.148;8.542;2022-08-02T06:25:05;20.20;99.90
19862;DHT22;10093;48.148;8.542;2022-08-02T06:27:30;20.10;99.90
19862;DHT22;10093;48.148;8.542;2022-08-02T06:29:57;20.30;99.90
19862;DHT22;10093;48.148;8.542;2022-08-02T06:32:23;20.40;99.90
19862;DHT22;10093;48.148;8.542;2022-08-02T06:34:51;20.60;99.90
19862;DHT22;10093;48.148;8.542;2022-08-02T06:37:30;20.50;99.90
19862;DHT22;10093;48.148;8.542;2022-08-02T06:40:34;20.70;99.90
19862;DHT22;10093;48.148;8.542;2022-08-02T06:43:17;20.70;99.90
19862;DHT22;10093;48.148;8.542;2022-08-02T06:45:45;21.20;99.90
19862;DHT22;10093;48.148;8.542;2022-08-02T06:48:11;21.90;99.90
19862;DHT22;10093;48.148;8.542;2022-08-02T06:50:37;23.10;99.90
19862;DHT22;10093;48.148;8.542;2022-08-02T06:53:04;24.90;99.90
19862;DHT22;10093;48.148;8.542;2022-08-02T06:55:30;26.20;99.90
19862;DHT22;10093;48.148;8.542;2022-08-02T06:57:57;27.50;99.90
19862;DHT22;10093;48.148;8.542;2022-08-02T07:00:23;28.40;99.90
19862;DHT22;10093;48.148;8.542;2022-08-02T07:02:49;29.70;99.90
19862;DHT22;10093;48.148;8.542;2022-08-02T07:05:15;30.20;99.90
19862;DHT22;10093;48.148;8.542;2022-08-02T07:07:41;30.60;99.90
19862;DHT22;10093;48.148;8.542;2022-08-02T07:10:07;31.90;99.90
19862;DHT22;10093;48.148;8.542;2022-08-02T07:12:33;32.40;99.90
19862;DHT22;10093;48.148;8.542;2022-08-02T07:15:00;31.20;99.90
19862;DHT22;10093;48.148;8.542;2022-08-02T07:17:27;31.20;99.90
19862;DHT22;10093;48.148;8.542;2022-08-02T07:19:53;32.10;99.90
19862;DHT22;10093;48.148;8.542;2022-08-02T07:22:19;32.60;99.90
19862;DHT22;10093;48.148;8.542;2022-08-02T07:24:47;32.40;99.90
19862;DHT22;10093;48.148;8.542;2022-08-02T07:27:13;33.60;99.90
19862;DHT22;10093;48.148;8.542;2022-08-02T07:29:39;34.00;99.90
19862;DHT22;10093;48.148;8.542;2022-08-02T07:32:05;34.60;99.90
19862;DHT22;10093;48.148;8.542;2022-08-02T07:34:31;34.70;99.90
19862;DHT22;10093;48.148;8.542;2022-08-02T07:36:56;34.50;99.90
19862;DHT22;10093;48.148;8.542;2022-08-02T07:39:22;34.40;99.90
19862;DHT22;10093;48.148;8.542;2022-08-02T07:41:48;34.70;99.90
19862;DHT22;10093;48.148;8.542;2022-08-02T07:44:17;34.10;99.90
19862;DHT22;10093;48.148;8.542;2022-08-02T07:46:43;33.50;99.90
19862;DHT22;10093;48.148;8.542;2022-08-02T07:49:09;33.70;99.90
19862;DHT22;10093;48.148;8.542;2022-08-02T07:51:35;33.90;99.90
19862;DHT22;10093;48.148;8.542;2022-08-02T07:54:01;33.70;99.90
19862;DHT22;10093;48.148;8.542;2022-08-02T07:56:27;32.60;99.90
19862;DHT22;10093;48.148;8.542;2022-08-02T07:58:52;32.60;99.90
19862;DHT22;10093;48.148;8.542;2022-08-02T08:01:19;33.00;99.90
19862;DHT22;10093;48.148;8.542;2022-08-02T08:03:44;33.70;99.90
19862;DHT22;10093;48.148;8.542;2022-08-02T08:06:10;35.30;99.90
19862;DHT22;10093;48.148;8.542;2022-08-02T08:08:36;35.10;98.80
19862;DHT22;10093;48.148;8.542;2022-08-02T08:11:01;34.20;99.60
19862;DHT22;10093;48.148;8.542;2022-08-02T08:13:27;34.60;99.90
19862;DHT22;10093;48.148;8.542;2022-08-02T08:15:53;35.20;99.50
19862;DHT22;10093;48.148;8.542;2022-08-02T08:18:20;34.60;99.00
19862;DHT22;10093;48.148;8.542;2022-08-02T08:20:46;35.00;98.80
19862;DHT22;10093;48.148;8.542;2022-08-02T08:23:11;34.70;99.90
19862;DHT22;10093;48.148;8.542;2022-08-02T08:25:37;35.90;99.20
19862;DHT22;10093;48.148;8.542;2022-08-02T08:28:04;36.40;98.60
19862;DHT22;10093;48.148;8.542;2022-08-02T08:30:29;33.90;99.90
19862;DHT22;10093;48.148;8.542;2022-08-02T08:32:55;31.50;99.90
19862;DHT22;10093;48.148;8.542;2022-08-02T08:35:20;31.20;99.90
19862;DHT22;10093;48.148;8.542;2022-08-02T08:37:46;30.40;99.90
19862;DHT22;10093;48.148;8.542;2022-08-02T08:40:12;30.60;99.90
19862;DHT22;10093;48.148;8.542;2022-08-02T08:42:39;32.90;99.90
19862;DHT22;10093;48.148;8.542;2022-08-02T08:45:05;33.90;99.80
19862;DHT22;10093;48.148;8.542;2022-08-02T08:47:37;34.10;99.80
19862;DHT22;10093;48.148;8.542;2022-08-02T08:50:11;32.70;99.90
19862;DHT22;10093;48.148;8.542;2022-08-02T08:52:42;30.40;99.90
19862;DHT22;10093;48.148;8.542;2022-08-02T08:55:10;30.90;99.90
19862;DHT22;10093;48.148;8.542;2022-08-02T08:57:41;30.00;99.90
19862;DHT22;10093;48.148;8.542;2022-08-02T09:00:11;30.70;99.90
19862;DHT22;10093;48.148;8.542;2022-08-02T09:02:41;29.90;99.90
19862;DHT22;10093;48.148;8.542;2022-08-02T09:05:12;28.60;99.90
19862;DHT22;10093;48.148;8.542;2022-08-02T09:07:37;31.30;99.90
19862;DHT22;10093;48.148;8.542;2022-08-02T09:10:35;31.40;99.90
19862;DHT22;10093;48.148;8.542;2022-08-02T09:13:20;31.90;99.90
19862;DHT22;10093;48.148;8.542;2022-08-02T09:15:54;32.20;99.90
19862;DHT22;10093;48.148;8.542;2022-08-02T09:18:37;29.20;99.90
19862;DHT22;10093;48.148;8.542;2022-08-02T09:21:06;28.10;99.90
19862;DHT22;10093;48.148;8.542;2022-08-02T09:23:48;28.60;99.90
19862;DHT22;10093;48.148;8.542;2022-08-02T09:26:15;28.90;99.90
19862;DHT22;10093;48.148;8.542;2022-08-02T09:28:46;29.70;99.90
19862;DHT22;10093;48.148;8.542;2022-08-02T09:31:13;31.10;99.90
19862;DHT22;10093;48.148;8.542;2022-08-02T09:33:41;32.00;99.90
19862;DHT22;10093;48.148;8.542;2022-08-02T09:36:11;33.10;99.90
19862;DHT22;10093;48.148;8.542;2022-08-02T09:38:39;34.10;99.60
19862;DHT22;10093;48.148;8.542;2022-08-02T09:41:06;30.50;99.90
19862;DHT22;10093;48.148;8.542;2022-08-02T09:43:43;28.80;99.90
19862;DHT22;10093;48.148;8.542;2022-08-02T09:48:53;31.40;99.90
19862;DHT22;10093;48.148;8.542;2022-08-02T09:53:53;33.70;98.80
19862;DHT22;10093;48.148;8.542;2022-08-02T09:56:21;33.30;99.50
19862;DHT22;10093;48.148;8.542;2022-08-02T09:58:48;33.00;99.50
19862;DHT22;10093;48.148;8.542;2022-08-02T10:01:14;34.10;99.30
19862;DHT22;10093;48.148;8.542;2022-08-02T10:03:57;35.40;97.80
19862;DHT22;10093;48.148;8.542;2022-08-02T10:06:23;35.50;97.40
19862;DHT22;10093;48.148;8.542;2022-08-02T10:08:49;36.10;97.10
19862;DHT22;10093;48.148;8.542;2022-08-02T10:11:15;36.10;97.70
19862;DHT22;10093;48.148;8.542;2022-08-02T10:13:42;36.70;96.70
19862;DHT22;10093;48.148;8.542;2022-08-02T10:16:07;36.80;96.60
19862;DHT22;10093;48.148;8.542;2022-08-02T10:18:34;36.80;96.20
19862;DHT22;10093;48.148;8.542;2022-08-02T10:21:01;36.30;96.10
19862;DHT22;10093;48.148;8.542;2022-08-02T10:23:33;34.50;97.80
19862;DHT22;10093;48.148;8.542;2022-08-02T10:25:59;34.00;98.00
19862;DHT22;10093;48.148;8.542;2022-08-02T10:28:26;33.60;99.00
19862;DHT22;10093;48.148;8.542;2022-08-02T10:30:55;35.00;96.70
19862;DHT22;10093;48.148;8.542;2022-08-02T10:33:22;35.60;96.70
19862;DHT22;10093;48.148;8.542;2022-08-02T10:35:54;35.30;95.80
19862;DHT22;10093;48.148;8.542;2022-08-02T10:38:22;34.10;97.20
19862;DHT22;10093;48.148;8.542;2022-08-02T10:40:53;33.90;98.10
19862;DHT22;10093;48.148;8.542;2022-08-02T10:43:40;34.30;98.30
19862;DHT22;10093;48.148;8.542;2022-08-02T10:46:37;34.30;96.40
19862;DHT22;10093;48.148;8.542;2022-08-02T10:49:10;32.10;99.20
19862;DHT22;10093;48.148;8.542;2022-08-02T10:56:56;30.00;99.90
19862;DHT22;10093;48.148;8.542;2022-08-02T11:01:50;29.90;99.90
19862;DHT22;10093;48.148;8.542;2022-08-02T11:04:16;29.90;99.90
19862;DHT22;10093;48.148;8.542;2022-08-02T11:07:11;30.30;99.90
19862;DHT22;10093;48.148;8.542;2022-08-02T11:09:39;33.60;98.30
19862;DHT22;10093;48.148;8.542;2022-08-02T11:12:10;33.90;96.70
19862;DHT22;10093;48.148;8.542;2022-08-02T11:14:41;34.60;97.00
19862;DHT22;10093;48.148;8.542;2022-08-02T11:17:12;35.80;96.40
19862;DHT22;10093;48.148;8.542;2022-08-02T11:20:12;34.30;96.30
19862;DHT22;10093;48.148;8.542;2022-08-02T11:22:39;33.80;96.90
19862;DHT22;10093;48.148;8.542;2022-08-02T11:27:56;33.00;97.80
19862;DHT22;10093;48.148;8.542;2022-08-02T11:30:22;34.00;97.90
19862;DHT22;10093;48.148;8.542;2022-08-02T11:32:49;34.70;96.70
19862;DHT22;10093;48.148;8.542;2022-08-02T11:35:15;34.10;96.80
19862;DHT22;10093;48.148;8.542;2022-08-02T11:37:42;32.10;98.60
19862;DHT22;10093;48.148;8.542;2022-08-02T11:40:11;30.90;99.20
19862;DHT22;10093;48.148;8.542;2022-08-02T11:42:42;30.60;99.40
19862;DHT22;10093;48.148;8.542;2022-08-02T11:45:09;30.10;99.90
19862;DHT22;10093;48.148;8.542;2022-08-02T11:47:48;30.70;99.90
19862;DHT22;10093;48.148;8.542;2022-08-02T11:50:14;29.60;99.90
19862;DHT22;10093;48.148;8.542;2022-08-02T11:52:41;30.20;99.90
19862;DHT22;10093;48.148;8.542;2022-08-02T11:55:08;29.50;99.90
19862;DHT22;10093;48.148;8.542;2022-08-02T11:57:35;29.60;99.90
19862;DHT22;10093;48.148;8.542;2022-08-02T12:00:02;28.90;99.90
19862;DHT22;10093;48.148;8.542;2022-08-02T12:02:30;28.00;99.90
19862;DHT22;10093;48.148;8.542;2022-08-02T12:05:02;27.70;99.90
19862;DHT22;10093;48.148;8.542;2022-08-02T12:07:33;28.80;99.90
19862;DHT22;10093;48.148;8.542;2022-08-02T12:10:01;31.40;99.70
19862;DHT22;10093;48.148;8.542;2022-08-02T12:12:27;32.60;99.20
19862;DHT22;10093;48.148;8.542;2022-08-02T12:14:53;31.40;99.70
19862;DHT22;10093;48.148;8.542;2022-08-02T12:17:22;31.10;99.90
19862;DHT22;10093;48.148;8.542;2022-08-02T12:20:08;30.00;99.70
19862;DHT22;10093;48.148;8.542;2022-08-02T12:22:33;28.90;99.90
19862;DHT22;10093;48.148;8.542;2022-08-02T12:25:15;28.40;99.90
19862;DHT22;10093;48.148;8.542;2022-08-02T12:27:41;28.90;99.90
19862;DHT22;10093;48.148;8.542;2022-08-02T12:30:08;29.10;99.90
19862;DHT22;10093;48.148;8.542;2022-08-02T12:32:35;30.60;99.60
19862;DHT22;10093;48.148;8.542;2022-08-02T12:37:35;32.90;99.00
19862;DHT22;10093;48.148;8.542;2022-08-02T12:40:23;33.80;97.60
19862;DHT22;10093;48.148;8.542;2022-08-02T12:43:03;35.50;95.90
19862;DHT22;10093;48.148;8.542;2022-08-02T12:45:51;36.70;94.90
19862;DHT22;10093;48.148;8.542;2022-08-02T12:50:56;35.40;94.60
19862;DHT22;10093;48.148;8.542;2022-08-02T12:53:31;35.10;94.60
19862;DHT22;10093;48.148;8.542;2022-08-02T12:55:57;33.80;95.20
19862;DHT22;10093;48.148;8.542;2022-08-02T12:58:24;30.60;98.30
19862;DHT22;10093;48.148;8.542;2022-08-02T13:00:58;29.70;99.10
19862;DHT22;10093;48.148;8.542;2022-08-02T13:03:24;29.50;99.40
19862;DHT22;10093;48.148;8.542;2022-08-02T13:05:50;29.90;99.90
19862;DHT22;10093;48.148;8.542;2022-08-02T13:08:16;32.20;98.30
19862;DHT22;10093;48.148;8.542;2022-08-02T13:10:42;33.00;97.00
19862;DHT22;10093;48.148;8.542;2022-08-02T13:13:08;33.20;96.80
19862;DHT22;10093;48.148;8.542;2022-08-02T13:15:34;32.10;97.00
19862;DHT22;10093;48.148;8.542;2022-08-02T13:17:59;31.30;98.00
19862;DHT22;10093;48.148;8.542;2022-08-02T13:20:26;30.60;98.30
19862;DHT22;10093;48.148;8.542;2022-08-02T13:22:52;29.90;98.80
19862;DHT22;10093;48.148;8.542;2022-08-02T13:25:18;30.60;98.80
19862;DHT22;10093;48.148;8.542;2022-08-02T13:27:51;31.90;98.40
19862;DHT22;10093;48.148;8.542;2022-08-02T13:30:17;33.20;97.90
19862;DHT22;10093;48.148;8.542;2022-08-02T13:32:43;34.30;96.30
19862;DHT22;10093;48.148;8.542;2022-08-02T13:35:09;33.40;97.30
19862;DHT22;10093;48.148;8.542;2022-08-02T13:37:35;33.50;96.00
19862;DHT22;10093;48.148;8.542;2022-08-02T13:40:01;34.10;95.90
19862;DHT22;10093;48.148;8.542;2022-08-02T13:42:27;30.90;99.00
19862;DHT22;10093;48.148;8.542;2022-08-02T13:44:53;32.50;97.20
19862;DHT22;10093;48.148;8.542;2022-08-02T13:47:18;33.80;96.10
19862;DHT22;10093;48.148;8.542;2022-08-02T13:49:44;33.40;97.30
19862;DHT22;10093;48.148;8.542;2022-08-02T13:52:10;33.80;96.10
19862;DHT22;10093;48.148;8.542;2022-08-02T13:54:35;33.70;96.70
19862;DHT22;10093;48.148;8.542;2022-08-02T13:57:01;33.10;96.20
19862;DHT22;10093;48.148;8.542;2022-08-02T13:59:26;33.10;96.80
19862;DHT22;10093;48.148;8.542;2022-08-02T14:01:53;33.40;96.60
19862;DHT22;10093;48.148;8.542;2022-08-02T14:04:20;32.40;97.00
19862;DHT22;10093;48.148;8.542;2022-08-02T14:06:46;31.00;98.10
19862;DHT22;10093;48.148;8.542;2022-08-02T14:09:12;30.50;98.50
19862;DHT22;10093;48.148;8.542;2022-08-02T14:11:37;29.50;99.20
19862;DHT22;10093;48.148;8.542;2022-08-02T14:14:03;31.00;98.10
19862;DHT22;10093;48.148;8.542;2022-08-02T14:16:29;31.80;97.60
19862;DHT22;10093;48.148;8.542;2022-08-02T14:18:54;32.20;96.70
19862;DHT22;10093;48.148;8.542;2022-08-02T14:21:21;32.90;96.40
19862;DHT22;10093;48.148;8.542;2022-08-02T14:23:47;32.70;97.00
19862;DHT22;10093;48.148;8.542;2022-08-02T14:26:13;32.80;96.80
19862;DHT22;10093;48.148;8.542;2022-08-02T14:28:38;33.90;96.60
19862;DHT22;10093;48.148;8.542;2022-08-02T14:31:04;33.70;96.10
19862;DHT22;10093;48.148;8.542;2022-08-02T14:33:30;34.10;96.00
19862;DHT22;10093;48.148;8.542;2022-08-02T14:35:55;34.50;95.70
19862;DHT22;10093;48.148;8.542;2022-08-02T14:38:22;34.60;95.10
19862;DHT22;10093;48.148;8.542;2022-08-02T14:40:48;34.90;95.10
19862;DHT22;10093;48.148;8.542;2022-08-02T14:43:14;35.40;95.00
19862;DHT22;10093;48.148;8.542;2022-08-02T14:45:59;34.80;94.50
19862;DHT22;10093;48.148;8.542;2022-08-02T14:48:25;31.60;96.50
19862;DHT22;10093;48.148;8.542;2022-08-02T14:50:50;32.00;96.90
19862;DHT22;10093;48.148;8.542;2022-08-02T14:53:16;31.50;97.00
19862;DHT22;10093;48.148;8.542;2022-08-02T14:55:42;30.00;98.60
19862;DHT22;10093;48.148;8.542;2022-08-02T14:58:08;29.70;98.90
19862;DHT22;10093;48.148;8.542;2022-08-02T15:00:34;29.70;99.60
19862;DHT22;10093;48.148;8.542;2022-08-02T15:03:00;30.00;99.10
19862;DHT22;10093;48.148;8.542;2022-08-02T15:05:25;30.10;98.90
19862;DHT22;10093;48.148;8.542;2022-08-02T15:07:51;30.70;97.80
19862;DHT22;10093;48.148;8.542;2022-08-02T15:10:16;30.70;97.70
19862;DHT22;10093;48.148;8.542;2022-08-02T15:12:42;31.60;98.00
19862;DHT22;10093;48.148;8.542;2022-08-02T15:15:08;32.20;97.70
19862;DHT22;10093;48.148;8.542;2022-08-02T15:17:33;32.10;97.20
19862;DHT22;10093;48.148;8.542;2022-08-02T15:19:59;32.30;97.00
19862;DHT22;10093;48.148;8.542;2022-08-02T15:22:25;31.30;97.50
19862;DHT22;10093;48.148;8.542;2022-08-02T15:24:50;30.60;98.00
19862;DHT22;10093;48.148;8.542;2022-08-02T15:27:16;30.30;97.90
19862;DHT22;10093;48.148;8.542;2022-08-02T15:29:43;30.20;98.00
19862;DHT22;10093;48.148;8.542;2022-08-02T15:32:09;30.40;97.50
19862;DHT22;10093;48.148;8.542;2022-08-02T15:34:35;29.10;98.70
19862;DHT22;10093;48.148;8.542;2022-08-02T15:37:01;28.90;99.20
19862;DHT22;10093;48.148;8.542;2022-08-02T15:39:27;28.60;99.00
19862;DHT22;10093;48.148;8.542;2022-08-02T15:41:52;28.60;99.20
19862;DHT22;10093;48.148;8.542;2022-08-02T15:44:18;28.60;99.20
19862;DHT22;10093;48.148;8.542;2022-08-02T15:46:43;28.80;99.10
19862;DHT22;10093;48.148;8.542;2022-08-02T15:49:09;28.90;99.40
19862;DHT22;10093;48.148;8.542;2022-08-02T15:51:35;29.50;98.90
19862;DHT22;10093;48.148;8.542;2022-08-02T15:54:00;30.10;98.60
19862;DHT22;10093;48.148;8.542;2022-08-02T15:56:26;30.20;97.90
19862;DHT22;10093;48.148;8.542;2022-08-02T15:58:52;30.00;98.20
19862;DHT22;10093;48.148;8.542;2022-08-02T16:01:17;29.80;98.50
19862;DHT22;10093;48.148;8.542;2022-08-02T16:03:43;30.00;97.90
19862;DHT22;10093;48.148;8.542;2022-08-02T16:06:09;30.10;98.50
19862;DHT22;10093;48.148;8.542;2022-08-02T16:08:35;30.30;98.00
19862;DHT22;10093;48.148;8.542;2022-08-02T16:11:00;30.40;97.70
19862;DHT22;10093;48.148;8.542;2022-08-02T16:13:26;30.60;97.70